createdAt,value
2022-12-31T00:00:29.645Z,85.54
2022-12-31T00:03:33.376Z,85.68
2022-12-31T00:06:36.317Z,85.79
2022-12-31T00:09:38.966Z,85.86
2022-12-31T00:12:41.370Z,85.97
2022-12-31T00:15:44.986Z,85.89
2022-12-31T00:18:52.588Z,85.79
2022-12-31T00:21:55.197Z,85.79
2022-12-31T00:24:57.503Z,85.87
2022-12-31T00:28:00.110Z,85.93
2022-12-31T00:31:17.190Z,85.93
2022-12-31T00:34:20.794Z,85.84
2022-12-31T00:37:23.105Z,85.82
2022-12-31T00:40:25.716Z,85.78
2022-12-31T00:43:28.065Z,85.79
2022-12-31T00:46:32.171Z,86.03
2022-12-31T00:49:34.491Z,86.22
2022-12-31T00:52:37.210Z,86.15
2022-12-31T00:55:39.520Z,86.26
2022-12-31T00:58:43.384Z,86.09
2022-12-31T01:01:45.966Z,86.14
2022-12-31T01:04:48.879Z,86.16
2022-12-31T01:07:51.154Z,86.15
2022-12-31T01:11:17.627Z,86.16
2022-12-31T01:14:20.696Z,86.28
2022-12-31T01:17:23.378Z,86.33
2022-12-31T01:20:25.654Z,86.50
2022-12-31T01:23:28.269Z,86.37
2022-12-31T01:26:31.982Z,86.46
2022-12-31T01:29:34.560Z,86.47
2022-12-31T01:32:36.818Z,86.61
2022-12-31T01:35:39.986Z,86.51
2022-12-31T01:38:42.940Z,86.44
2022-12-31T01:41:47.949Z,86.42
2022-12-31T01:44:55.418Z,86.46
2022-12-31T01:48:00.187Z,86.26
2022-12-31T01:51:02.499Z,86.18
2022-12-31T01:54:08.735Z,86.00
2022-12-31T01:57:12.046Z,85.98
2022-12-31T02:00:15.597Z,85.92
2022-12-31T02:03:22.742Z,85.85
2022-12-31T02:06:35.113Z,85.79
2022-12-31T02:09:40.185Z,85.68
2022-12-31T02:12:42.607Z,85.62
2022-12-31T02:16:34.508Z,85.45
2022-12-31T02:20:14.086Z,85.36
2022-12-31T02:23:34.888Z,85.23
2022-12-31T02:26:52.150Z,85.12
2022-12-31T02:29:57.807Z,85.03
2022-12-31T02:33:19.286Z,85.06
2022-12-31T02:36:28.809Z,84.93
2022-12-31T02:39:32.266Z,84.83
2022-12-31T02:42:34.891Z,84.79
2022-12-31T02:45:43.189Z,84.74
2022-12-31T02:48:52.879Z,84.83
2022-12-31T02:52:29.536Z,84.69
2022-12-31T02:55:48.975Z,84.72
2022-12-31T02:59:27.073Z,84.75
2022-12-31T03:02:33.464Z,84.87
2022-12-31T03:05:41.622Z,84.83
2022-12-31T03:09:02.542Z,84.77
2022-12-31T03:12:26.873Z,84.86
2022-12-31T03:15:32.421Z,84.84
2022-12-31T03:18:54.734Z,84.83
2022-12-31T03:22:16.019Z,84.90
2022-12-31T03:25:35.043Z,85.09
2022-12-31T03:28:40.192Z,84.97
2022-12-31T03:31:42.569Z,84.84
2022-12-31T03:34:45.166Z,85.01
2022-12-31T03:37:49.378Z,85.09
2022-12-31T03:40:52.992Z,85.07
2022-12-31T03:43:55.292Z,85.18
2022-12-31T03:46:57.862Z,85.27
2022-12-31T03:50:00.230Z,85.30
2022-12-31T03:53:03.292Z,85.24
2022-12-31T03:56:05.884Z,85.22
2022-12-31T03:59:08.504Z,85.17
2022-12-31T04:02:11.207Z,85.04
2022-12-31T04:05:14.529Z,85.06
2022-12-31T04:08:16.916Z,85.04
2022-12-31T04:11:21.177Z,85.07
2022-12-31T04:14:23.575Z,84.92
2022-12-31T04:17:28.893Z,84.84
2022-12-31T04:20:31.282Z,84.69
2022-12-31T04:23:33.950Z,84.73
2022-12-31T04:26:37.259Z,84.89
2022-12-31T04:29:40.115Z,84.86
2022-12-31T04:32:44.815Z,84.87
2022-12-31T04:35:47.497Z,84.90
2022-12-31T04:38:49.823Z,84.89
2022-12-31T04:41:53.148Z,84.89
2022-12-31T04:44:57.112Z,84.90
2022-12-31T04:47:59.754Z,84.96
2022-12-31T04:51:02.092Z,85.01
2022-12-31T04:54:05.335Z,85.01
2022-12-31T04:57:07.647Z,85.18
2022-12-31T05:00:10.894Z,85.11
2022-12-31T05:03:13.283Z,85.18
2022-12-31T05:06:18.654Z,85.15
2022-12-31T05:09:24.034Z,85.11
2022-12-31T05:12:26.745Z,85.22
2022-12-31T05:15:29.356Z,85.06
2022-12-31T05:18:33.022Z,84.96
2022-12-31T05:21:35.637Z,84.84
2022-12-31T05:24:38.353Z,85.00
2022-12-31T05:27:40.753Z,84.94
2022-12-31T05:30:44.680Z,84.96
2022-12-31T05:33:46.990Z,85.08
2022-12-31T05:36:49.546Z,85.14
2022-12-31T05:39:52.280Z,85.19
2022-12-31T05:42:55.215Z,85.27
2022-12-31T05:46:00.024Z,85.37
2022-12-31T05:49:02.658Z,85.42
2022-12-31T05:52:08.301Z,85.45
2022-12-31T05:55:12.330Z,85.50
2022-12-31T05:58:16.296Z,85.39
2022-12-31T06:01:19.166Z,85.43
2022-12-31T06:04:22.000Z,85.40
2022-12-31T06:07:24.349Z,85.51
2022-12-31T06:10:27.047Z,85.46
2022-12-31T06:13:29.547Z,85.69
2022-12-31T06:16:32.145Z,85.81
2022-12-31T06:19:35.551Z,85.86
2022-12-31T06:22:38.170Z,85.87
2022-12-31T06:25:40.577Z,85.82
2022-12-31T06:28:43.278Z,85.81
2022-12-31T06:31:45.704Z,85.87
2022-12-31T06:34:48.322Z,85.95
2022-12-31T06:37:52.274Z,85.98
2022-12-31T06:40:54.977Z,85.98
2022-12-31T06:43:57.511Z,85.97
2022-12-31T06:47:01.262Z,85.92
2022-12-31T06:50:03.684Z,86.11
2022-12-31T06:53:06.940Z,86.02
2022-12-31T06:56:20.834Z,86.02
2022-12-31T06:59:27.424Z,85.97
2022-12-31T07:02:51.510Z,85.79
2022-12-31T07:06:13.709Z,85.75
2022-12-31T07:09:27.809Z,85.72
2022-12-31T07:12:54.853Z,85.65
2022-12-31T07:16:16.621Z,85.59
2022-12-31T07:19:37.345Z,85.36
2022-12-31T07:22:40.040Z,85.36
2022-12-31T07:25:54.224Z,85.26
2022-12-31T07:29:15.431Z,85.18
2022-12-31T07:32:39.864Z,85.22
2022-12-31T07:35:56.306Z,85.11
2022-12-31T07:39:11.839Z,84.88
2022-12-31T07:42:14.085Z,85.05
2022-12-31T07:45:37.821Z,85.16
2022-12-31T07:48:40.356Z,84.64
2022-12-31T07:51:43.711Z,84.41
2022-12-31T07:54:46.662Z,84.36
2022-12-31T07:58:01.775Z,84.50
2022-12-31T08:01:05.531Z,84.39
2022-12-31T08:04:48.158Z,84.73
2022-12-31T08:07:59.377Z,84.05
2022-12-31T08:11:39.888Z,83.62
2022-12-31T08:14:48.655Z,83.37
2022-12-31T08:17:51.520Z,83.14
2022-12-31T08:21:35.070Z,82.97
2022-12-31T08:24:51.765Z,82.80
2022-12-31T08:28:12.422Z,82.66
2022-12-31T08:31:28.480Z,82.71
2022-12-31T08:34:52.176Z,82.66
2022-12-31T08:38:16.385Z,82.23
2022-12-31T08:41:43.452Z,82.16
2022-12-31T08:44:58.237Z,81.84
2022-12-31T08:48:02.965Z,81.54
2022-12-31T08:51:06.939Z,81.29
2022-12-31T08:54:11.812Z,81.17
2022-12-31T08:57:34.685Z,81.24
2022-12-31T09:00:40.693Z,80.96
2022-12-31T09:04:08.912Z,80.55
2022-12-31T09:07:14.917Z,79.98
2022-12-31T09:10:20.366Z,79.92
2022-12-31T09:14:01.410Z,79.59
2022-12-31T09:17:32.815Z,79.29
2022-12-31T09:20:44.734Z,79.29
2022-12-31T09:23:50.477Z,79.40
2022-12-31T09:27:25.443Z,79.71
2022-12-31T09:30:48.725Z,80.63
2022-12-31T09:33:57.977Z,80.25
2022-12-31T09:37:06.881Z,79.66
2022-12-31T09:40:43.198Z,79.87
2022-12-31T09:44:07.444Z,79.89
2022-12-31T09:47:34.421Z,79.83
2022-12-31T09:50:59.425Z,79.45
2022-12-31T09:54:22.622Z,79.52
2022-12-31T09:57:48.886Z,79.53
2022-12-31T10:01:02.237Z,79.48
2022-12-31T10:04:30.706Z,79.34
2022-12-31T10:07:53.600Z,79.37
2022-12-31T10:11:05.322Z,78.99
2022-12-31T10:14:47.136Z,78.76
2022-12-31T10:18:23.360Z,78.63
2022-12-31T10:21:52.369Z,78.87
2022-12-31T10:25:16.627Z,78.84
2022-12-31T10:28:40.959Z,78.71
2022-12-31T10:32:13.216Z,78.74
2022-12-31T10:35:40.246Z,78.58
2022-12-31T10:39:24.825Z,78.48
2022-12-31T10:43:19.919Z,78.29
2022-12-31T10:46:53.696Z,78.39
2022-12-31T10:50:22.354Z,78.49
2022-12-31T10:53:57.033Z,78.74
2022-12-31T10:57:10.137Z,78.76
2022-12-31T11:00:46.190Z,79.06
2022-12-31T11:04:38.436Z,79.31
2022-12-31T11:07:43.843Z,79.48
2022-12-31T11:10:56.028Z,79.64
2022-12-31T11:14:11.116Z,79.76
2022-12-31T11:17:37.878Z,79.88
2022-12-31T11:21:06.965Z,80.14
2022-12-31T11:24:38.616Z,80.41
2022-12-31T11:27:53.511Z,80.33
2022-12-31T11:31:41.133Z,80.42
2022-12-31T11:35:24.599Z,80.41
2022-12-31T11:38:39.978Z,80.23
2022-12-31T11:41:54.712Z,80.27
2022-12-31T11:45:14.937Z,80.24
2022-12-31T11:48:39.517Z,80.13
2022-12-31T11:52:24.831Z,79.90
2022-12-31T11:55:38.871Z,79.74
2022-12-31T11:58:47.850Z,79.88
2022-12-31T12:02:00.912Z,79.73
2022-12-31T12:05:11.146Z,79.82
2022-12-31T12:08:19.638Z,79.80
2022-12-31T12:11:29.269Z,79.91
2022-12-31T12:14:36.269Z,80.14
2022-12-31T12:17:39.346Z,79.91
2022-12-31T12:20:46.450Z,79.75
2022-12-31T12:23:57.995Z,79.74
2022-12-31T12:27:00.397Z,79.55
2022-12-31T12:30:29.201Z,79.30
2022-12-31T12:33:44.660Z,79.07
2022-12-31T12:36:48.211Z,79.03
2022-12-31T12:40:02.251Z,78.35
2022-12-31T12:43:06.654Z,78.09
2022-12-31T12:46:19.813Z,77.90
2022-12-31T12:49:29.167Z,77.80
2022-12-31T12:52:59.226Z,77.70
2022-12-31T12:56:39.066Z,77.54
2022-12-31T13:00:07.687Z,77.79
2022-12-31T13:03:20.155Z,77.79
2022-12-31T13:06:31.416Z,77.71
2022-12-31T13:10:06.463Z,77.64
2022-12-31T13:13:34.125Z,77.90
2022-12-31T13:16:59.852Z,78.02
2022-12-31T13:20:15.332Z,78.26
2022-12-31T13:23:44.051Z,78.50
2022-12-31T13:27:05.496Z,78.32
2022-12-31T13:30:19.215Z,78.35
2022-12-31T13:33:55.816Z,78.67
2022-12-31T13:37:06.119Z,78.48
2022-12-31T13:40:27.142Z,78.78
2022-12-31T13:43:48.813Z,78.89
2022-12-31T13:47:40.896Z,78.85
2022-12-31T13:50:51.881Z,79.02
2022-12-31T13:54:10.731Z,79.10
2022-12-31T13:57:43.073Z,79.12
2022-12-31T14:00:53.134Z,79.36
2022-12-31T14:04:01.710Z,79.58
2022-12-31T14:07:16.004Z,79.59
2022-12-31T14:10:30.654Z,79.19
2022-12-31T14:13:48.252Z,79.24
2022-12-31T14:17:01.904Z,79.39
2022-12-31T14:20:35.095Z,79.36
2022-12-31T14:24:13.798Z,79.51
2022-12-31T14:27:24.004Z,79.81
2022-12-31T14:30:32.358Z,79.64
2022-12-31T14:34:10.886Z,79.77
2022-12-31T14:37:31.416Z,79.75
2022-12-31T14:40:58.379Z,80.12
2022-12-31T14:44:44.941Z,80.03
2022-12-31T14:48:20.061Z,80.09
2022-12-31T14:51:28.646Z,80.22
2022-12-31T14:54:38.451Z,80.47
2022-12-31T14:58:27.129Z,80.62
2022-12-31T15:01:14.854Z,80.84
2022-12-31T15:04:34.027Z,81.18
2022-12-31T15:07:48.097Z,80.98
2022-12-31T15:11:11.859Z,81.06
2022-12-31T15:14:37.455Z,81.20
2022-12-31T15:17:47.247Z,81.18
2022-12-31T15:21:13.945Z,81.70
2022-12-31T15:24:27.819Z,81.95
2022-12-31T15:27:33.143Z,82.08
2022-12-31T15:30:45.207Z,82.11
2022-12-31T15:34:05.693Z,82.33
2022-12-31T15:37:35.395Z,82.32
2022-12-31T15:40:46.422Z,82.48
2022-12-31T15:44:06.581Z,82.82
2022-12-31T15:47:36.736Z,82.79
2022-12-31T15:50:39.753Z,82.89
2022-12-31T15:53:47.025Z,83.08
2022-12-31T15:56:50.205Z,83.40
2022-12-31T15:59:59.373Z,83.65
2022-12-31T16:03:02.548Z,83.42
2022-12-31T16:06:15.941Z,83.77
2022-12-31T16:09:27.902Z,83.95
2022-12-31T16:12:40.776Z,84.00
2022-12-31T16:15:52.020Z,84.10
2022-12-31T16:18:56.238Z,84.08
2022-12-31T16:22:14.081Z,84.05
2022-12-31T16:25:36.557Z,83.95
2022-12-31T16:28:38.912Z,84.23
2022-12-31T16:31:44.583Z,83.95
2022-12-31T16:34:46.974Z,84.20
2022-12-31T16:38:19.049Z,84.37
2022-12-31T16:41:22.247Z,84.35
2022-12-31T16:44:29.677Z,84.43
2022-12-31T16:47:36.045Z,84.33
2022-12-31T16:50:39.041Z,84.47
2022-12-31T16:53:42.221Z,84.29
2022-12-31T16:56:45.103Z,84.30
2022-12-31T16:59:56.213Z,84.28
2022-12-31T17:03:18.024Z,84.42
2022-12-31T17:06:21.658Z,84.61
2022-12-31T17:09:33.574Z,84.86
2022-12-31T17:13:25.641Z,84.99
2022-12-31T17:16:08.913Z,85.05
2022-12-31T17:19:25.545Z,85.11
2022-12-31T17:22:40.490Z,85.10
2022-12-31T17:25:42.897Z,85.62
2022-12-31T17:28:49.326Z,85.46
2022-12-31T17:32:36.589Z,85.70
2022-12-31T17:35:43.915Z,85.81
2022-12-31T17:38:46.422Z,85.65
2022-12-31T17:41:52.770Z,85.76
2022-12-31T17:44:59.644Z,85.63
2022-12-31T17:48:02.807Z,85.64
2022-12-31T17:51:05.439Z,85.65
2022-12-31T17:54:16.027Z,85.92
2022-12-31T17:57:26.138Z,85.74
2022-12-31T18:00:28.897Z,85.90
2022-12-31T18:03:31.616Z,85.88
2022-12-31T18:06:33.906Z,85.92
2022-12-31T18:09:36.537Z,85.64
2022-12-31T18:12:39.591Z,85.82
2022-12-31T18:15:42.266Z,85.93
2022-12-31T18:18:45.448Z,86.13
2022-12-31T18:21:48.267Z,86.03
2022-12-31T18:24:54.391Z,86.13
2022-12-31T18:27:57.495Z,86.26
2022-12-31T18:31:00.109Z,86.31
2022-12-31T18:34:09.289Z,86.35
2022-12-31T18:37:21.689Z,86.48
2022-12-31T18:40:25.528Z,86.45
2022-12-31T18:43:27.969Z,86.37
2022-12-31T18:46:30.845Z,86.39
2022-12-31T18:49:41.377Z,86.40
2022-12-31T18:52:44.271Z,86.50
2022-12-31T18:55:55.524Z,86.61
2022-12-31T18:58:59.791Z,86.63
2022-12-31T19:02:02.137Z,86.75
2022-12-31T19:05:26.402Z,86.70
2022-12-31T19:08:28.790Z,86.87
2022-12-31T19:11:33.050Z,86.88
2022-12-31T19:14:35.629Z,86.91
2022-12-31T19:17:38.287Z,86.72
2022-12-31T19:20:42.011Z,86.53
2022-12-31T19:23:44.989Z,86.51
2022-12-31T19:26:47.813Z,86.50
2022-12-31T19:29:50.480Z,86.53
2022-12-31T19:32:53.249Z,86.43
2022-12-31T19:35:55.880Z,86.40
2022-12-31T19:38:58.282Z,86.25
2022-12-31T19:42:00.946Z,86.40
2022-12-31T19:45:03.718Z,86.29
2022-12-31T19:48:06.480Z,86.38
2022-12-31T19:51:12.858Z,86.36
2022-12-31T19:54:17.931Z,86.31
2022-12-31T19:57:22.445Z,86.24
2022-12-31T20:00:25.198Z,86.28
2022-12-31T20:03:28.222Z,86.36
2022-12-31T20:06:31.274Z,86.38
2022-12-31T20:09:33.898Z,86.46
2022-12-31T20:12:42.223Z,86.84
2022-12-31T20:15:47.905Z,86.78
2022-12-31T20:18:50.782Z,86.97
2022-12-31T20:21:53.645Z,87.01
2022-12-31T20:24:56.253Z,87.01
2022-12-31T20:27:58.882Z,86.79
2022-12-31T20:31:08.961Z,86.61
2022-12-31T20:34:11.825Z,86.69
2022-12-31T20:37:14.165Z,86.63
2022-12-31T20:40:17.202Z,86.72
2022-12-31T20:43:19.532Z,86.66
2022-12-31T20:46:24.821Z,86.65
2022-12-31T20:50:00.775Z,86.65
2022-12-31T20:52:50.076Z,86.50
2022-12-31T20:55:52.432Z,86.60
2022-12-31T20:58:55.359Z,86.53
2022-12-31T21:02:20.980Z,86.41
2022-12-31T21:05:20.483Z,86.41
2022-12-31T21:08:23.094Z,86.50
2022-12-31T21:11:45.219Z,86.35
2022-12-31T21:14:48.411Z,86.29
2022-12-31T21:17:54.809Z,86.29
2022-12-31T21:21:00.610Z,86.31
2022-12-31T21:24:03.554Z,86.21
2022-12-31T21:27:06.630Z,86.34
2022-12-31T21:30:19.541Z,86.36
2022-12-31T21:33:22.346Z,86.42
2022-12-31T21:36:25.299Z,86.54
2022-12-31T21:39:27.775Z,86.67
2022-12-31T21:42:30.397Z,86.79
2022-12-31T21:45:32.941Z,86.95
2022-12-31T21:48:35.602Z,86.86
2022-12-31T21:51:57.971Z,86.85
2022-12-31T21:55:21.082Z,86.96
2022-12-31T21:58:26.463Z,87.26
2022-12-31T22:01:48.968Z,87.32
2022-12-31T22:05:17.369Z,87.29
2022-12-31T22:08:14.137Z,87.38
2022-12-31T22:11:18.330Z,87.37
2022-12-31T22:14:20.698Z,87.24
2022-12-31T22:17:23.412Z,87.13
2022-12-31T22:20:27.498Z,87.22
2022-12-31T22:23:32.246Z,87.33
2022-12-31T22:26:34.786Z,87.36
2022-12-31T22:29:37.446Z,87.39
2022-12-31T22:32:39.786Z,87.41
2022-12-31T22:35:42.512Z,87.36
2022-12-31T22:38:46.115Z,87.37
2022-12-31T22:41:48.751Z,87.31
2022-12-31T22:44:51.099Z,87.32
2022-12-31T22:47:53.768Z,87.21
2022-12-31T22:50:57.161Z,87.17
2022-12-31T22:53:59.797Z,87.13
2022-12-31T22:57:02.128Z,87.08
2022-12-31T23:00:09.979Z,87.06
2022-12-31T23:03:12.861Z,87.07
2022-12-31T23:06:16.467Z,86.96
2022-12-31T23:09:37.540Z,86.93
2022-12-31T23:12:40.137Z,87.07
2022-12-31T23:16:03.537Z,87.07
2022-12-31T23:19:24.962Z,87.01
2022-12-31T23:22:45.478Z,86.91
2022-12-31T23:25:50.552Z,87.10
2022-12-31T23:28:53.525Z,87.11
2022-12-31T23:31:59.961Z,87.15
2022-12-31T23:35:09.378Z,87.04
2022-12-31T23:38:13.727Z,87.01
2022-12-31T23:41:19.840Z,87.06
2022-12-31T23:44:22.453Z,87.33
2022-12-31T23:47:25.003Z,87.52
2022-12-31T23:50:27.736Z,87.51
2022-12-31T23:53:33.177Z,87.48
2022-12-31T23:56:35.967Z,87.32
2022-12-31T23:59:38.308Z,87.39
